Private Wetterstation Wechselburg
Wetterdaten: Sonntag, 07.10.2012
Datum Zeit Temp. +2m Bodentemp. Temp.+5cm Temp. Wind Windchill X Diff Temp. Feuchte +2m Feuchte +5cm Sonnenschein Luftdruck Regen Wind Richtung Richtung Sonnenschein UV Taupunkt Windchill Windben
07.10.2012 00:00 8,1 C 20,0 C 9,4 C 8,4 C 8,4 C 0,3 C 89 % 95 % 0 % 1015,4 hPa 0,7 l/m 0,0 km/h (0 Bft) SW 225 0 min 0,0 UV-I 6,4 C 8,4 C 0,0 km/h (0 Bft)
07.10.2012 00:05 8,1 C 20,0 C 9,4 C 8,5 C 8,5 C 0,4 C 89 % 95 % 0 % 1015,4 hPa 0,0 l/m 0,0 km/h (0 Bft) W-SW 247 0 min 0,0 UV-I 6,4 C 8,5 C 0,0 km/h (0 Bft)
07.10.2012 00:10 8,1 C 20,0 C 9,4 C 8,5 C 8,5 C 0,4 C 89 % 95 % 0 % 1015,4 hPa 0,0 l/m 0,0 km/h (0 Bft) W-SW 247 0 min 0,0 UV-I 6,4 C 8,5 C 0,0 km/h (0 Bft)
07.10.2012 00:15 8,1 C 19,9 C 9,5 C 8,5 C 8,5 C 0,4 C 89 % 95 % 0 % 1015,4 hPa 0,0 l/m 0,0 km/h (0 Bft) S 180 0 min 0,0 UV-I 6,4 C 8,5 C 0,0 km/h (0 Bft)
07.10.2012 00:20 8,0 C 19,9 C 9,4 C 8,6 C 8,6 C 0,6 C 89 % 95 % 0 % 1015,4 hPa 0,0 l/m 0,0 km/h (0 Bft) S 180 0 min 0,0 UV-I 6,3 C 8,6 C 0,0 km/h (0 Bft)
07.10.2012 00:25 8,1 C 19,9 C 9,5 C 8,6 C 8,6 C 0,5 C 89 % 95 % 0 % 1015,4 hPa 0,0 l/m 0,0 km/h (0 Bft) O-NO 67 0 min 0,0 UV-I 6,4 C 8,6 C 0,0 km/h (0 Bft)
07.10.2012 00:30 8,1 C 19,9 C 9,5 C 8,6 C 8,6 C 0,5 C 89 % 95 % 0 % 1015,4 hPa 0,0 l/m 0,0 km/h (0 Bft) O-NO 67 0 min 0,0 UV-I 6,4 C 8,6 C 0,0 km/h (0 Bft)
07.10.2012 00:35 8,0 C 20,0 C 9,5 C 8,3 C 8,3 C 0,3 C 89 % 95 % 0 % 1015,4 hPa 0,0 l/m 0,0 km/h (0 Bft) SW 225 0 min 0,0 UV-I 6,3 C 8,3 C 0,0 km/h (0 Bft)
07.10.2012 00:41 8,0 C 20,0 C 9,3 C 8,3 C 8,3 C 0,3 C 89 % 95 % 0 % 1015,4 hPa 0,0 l/m 0,0 km/h (0 Bft) N 0 0 min 0,0 UV-I 6,3 C 8,3 C 0,0 km/h (0 Bft)
07.10.2012 00:55 8,1 C 19,9 C 9,5 C 8,7 C 8,7 C 0,6 C 90 % 95 % 0 % 1015,4 hPa 0,0 l/m 0,0 km/h (0 Bft) NO 45 0 min 0,0 UV-I 6,6 C 8,7 C 0,0 km/h (0 Bft)
07.10.2012 01:00 8,1 C 19,9 C 9,4 C 8,7 C 8,7 C 0,6 C 90 % 95 % 0 % 1015,1 hPa 0,0 l/m 0,0 km/h (0 Bft) O-NO 67 0 min 0,0 UV-I 6,6 C 8,7 C 0,0 km/h (0 Bft)
07.10.2012 01:05 8,1 C 19,9 C 9,3 C 8,6 C 8,6 C 0,5 C 90 % 95 % 0 % 1015,1 hPa 0,0 l/m 0,0 km/h (0 Bft) NO 45 0 min 0,0 UV-I 6,6 C 8,6 C 0,0 km/h (0 Bft)
07.10.2012 01:10 8,1 C 19,9 C 9,3 C 8,6 C 8,6 C 0,5 C 90 % 95 % 0 % 1015,1 hPa 0,0 l/m 0,0 km/h (0 Bft) O-NO 67 0 min 0,0 UV-I 6,6 C 8,6 C 0,0 km/h (0 Bft)
07.10.2012 01:15 8,1 C 19,9 C 9,3 C 8,6 C 8,6 C 0,5 C 90 % 95 % 0 % 1015,1 hPa 0,0 l/m 0,0 km/h (0 Bft) O-NO 67 0 min 0,0 UV-I 6,6 C 8,6 C 0,0 km/h (0 Bft)
07.10.2012 01:20 8,1 C 19,9 C 9,2 C 8,5 C 8,5 C 0,4 C 90 % 95 % 0 % 1014,9 hPa 0,0 l/m 0,0 km/h (0 Bft) NO 45 0 min 0,0 UV-I 6,6 C 8,5 C 0,0 km/h (0 Bft)
07.10.2012 01:25 8,0 C 19,8 C 9,3 C 8,4 C 8,4 C 0,4 C 90 % 95 % 0 % 1014,9 hPa 0,0 l/m 0,0 km/h (0 Bft) O-NO 67 0 min 0,0 UV-I 6,5 C 8,4 C 0,0 km/h (0 Bft)
07.10.2012 01:30 8,0 C 19,8 C 9,2 C 8,4 C 8,4 C 0,4 C 90 % 95 % 0 % 1014,9 hPa 0,0 l/m 0,0 km/h (0 Bft) O-NO 67 0 min 0,0 UV-I 6,5 C 8,4 C 0,0 km/h (0 Bft)
07.10.2012 01:35 8,0 C 19,8 C 9,2 C 8,5 C 8,5 C 0,5 C 90 % 95 % 0 % 1014,9 hPa 0,0 l/m 0,0 km/h (0 Bft) N 360 0 min 0,0 UV-I 6,5 C 8,5 C 0,0 km/h (0 Bft)
07.10.2012 01:40 8,0 C 19,8 C 9,3 C 8,5 C 8,5 C 0,5 C 90 % 95 % 0 % 1015,2 hPa 0,0 l/m 0,0 km/h (0 Bft) N-NO 22 0 min 0,0 UV-I 6,5 C 8,5 C 0,0 km/h (0 Bft)
07.10.2012 01:45 8,0 C 19,8 C 9,3 C 8,6 C 8,6 C 0,6 C 90 % 95 % 0 % 1015,2 hPa 0,0 l/m 0,0 km/h (0 Bft) NO 45 0 min 0,0 UV-I 6,5 C 8,6 C 0,0 km/h (0 Bft)
07.10.2012 01:50 8,0 C 19,8 C 9,3 C 8,6 C 8,6 C 0,6 C 90 % 95 % 0 % 1015,2 hPa 0,0 l/m 0,0 km/h (0 Bft) N-NO 22 0 min 0,0 UV-I 6,5 C 8,6 C 0,0 km/h (0 Bft)
07.10.2012 01:55 8,0 C 19,8 C 9,3 C 8,6 C 8,6 C 0,6 C 90 % 95 % 0 % 1015,2 hPa 0,0 l/m 0,0 km/h (0 Bft) O-NO 67 0 min 0,0 UV-I 6,5 C 8,6 C 0,0 km/h (0 Bft)
07.10.2012 02:00 8,0 C 19,8 C 9,2 C 8,5 C 8,5 C 0,5 C 90 % 95 % 0 % 1014,9 hPa 0,0 l/m 0,0 km/h (0 Bft) O-NO 67 0 min 0,0 UV-I 6,5 C 8,5 C 0,0 km/h (0 Bft)
07.10.2012 02:05 8,0 C 19,7 C 9,2 C 8,5 C 8,5 C 0,5 C 90 % 95 % 0 % 1014,9 hPa 0,0 l/m 0,0 km/h (0 Bft) O-NO 67 0 min 0,0 UV-I 6,5 C 8,5 C 0,0 km/h (0 Bft)
07.10.2012 02:10 8,1 C 19,7 C 9,2 C 8,5 C 8,5 C 0,4 C 90 % 95 % 0 % 1014,9 hPa 0,0 l/m 0,0 km/h (0 Bft) O-NO 67 0 min 0,0 UV-I 6,6 C 8,5 C 0,0 km/h (0 Bft)
07.10.2012 02:15 8,0 C 19,7 C 9,2 C 8,3 C 8,3 C 0,3 C 90 % 95 % 0 % 1014,9 hPa 0,0 l/m 0,2 km/h (0 Bft) W-SW 247 0 min 0,0 UV-I 6,5 C 8,3 C 1,9 km/h (1 Bft)
07.10.2012 02:20 7,9 C 19,7 C 9,3 C 8,3 C 8,3 C 0,4 C 90 % 95 % 0 % 1015,3 hPa 0,0 l/m 0,5 km/h (0 Bft) W-SW 247 0 min 0,0 UV-I 6,4 C 8,3 C 0,0 km/h (0 Bft)
07.10.2012 02:25 7,9 C 19,7 C 9,2 C 8,4 C 8,4 C 0,5 C 90 % 95 % 0 % 1015,3 hPa 0,0 l/m 0,5 km/h (0 Bft) W-SW 247 0 min 0,0 UV-I 6,4 C 8,4 C 0,0 km/h (0 Bft)
07.10.2012 02:30 7,9 C 19,7 C 9,2 C 8,4 C 8,4 C 0,5 C 90 % 95 % 0 % 1015,3 hPa 0,0 l/m 0,0 km/h (0 Bft) W-SW 247 0 min 0,0 UV-I 6,4 C 8,4 C 2,6 km/h (1 Bft)
07.10.2012 02:35 7,9 C 19,7 C 9,1 C 8,2 C 8,2 C 0,3 C 90 % 95 % 0 % 1015,3 hPa 0,0 l/m 0,0 km/h (0 Bft) W-SW 247 0 min 0,0 UV-I 6,4 C 8,2 C 0,0 km/h (0 Bft)
07.10.2012 02:40 7,8 C 19,7 C 9,1 C 8,2 C 8,2 C 0,4 C 90 % 95 % 0 % 1014,8 hPa 0,0 l/m 0,0 km/h (0 Bft) N-NO 22 0 min 0,0 UV-I 6,3 C 8,2 C 0,0 km/h (0 Bft)
07.10.2012 02:45 7,9 C 19,6 C 9,0 C 8,0 C 8,0 C 0,1 C 90 % 95 % 0 % 1014,8 hPa 0,0 l/m 0,0 km/h (0 Bft) NW 315 0 min 0,0 UV-I 6,4 C 8,0 C 0,0 km/h (0 Bft)
07.10.2012 02:50 7,7 C 19,6 C 8,9 C 7,9 C 7,9 C 0,2 C 90 % 95 % 0 % 1014,8 hPa 0,0 l/m 0,0 km/h (0 Bft) NO 45 0 min 0,0 UV-I 6,2 C 7,9 C 0,0 km/h (0 Bft)
07.10.2012 02:55 7,6 C 19,6 C 8,8 C 7,9 C 7,9 C 0,3 C 90 % 95 % 0 % 1014,8 hPa 0,0 l/m 0,0 km/h (0 Bft) NO 45 0 min 0,0 UV-I 6,1 C 7,9 C 0,0 km/h (0 Bft)
07.10.2012 03:00 7,7 C 19,6 C 8,9 C 7,8 C 7,8 C 0,1 C 90 % 95 % 0 % 1014,9 hPa 0,0 l/m 0,0 km/h (0 Bft) NO 45 0 min 0,0 UV-I 6,2 C 7,8 C 0,0 km/h (0 Bft)
07.10.2012 03:05 7,6 C 19,6 C 8,7 C 7,9 C 7,9 C 0,3 C 90 % 95 % 0 % 1014,9 hPa 0,0 l/m 0,0 km/h (0 Bft) O 90 0 min 0,0 UV-I 6,1 C 7,9 C 0,0 km/h (0 Bft)
07.10.2012 03:10 7,5 C 19,6 C 8,7 C 7,9 C 7,9 C 0,4 C 90 % 95 % 0 % 1014,9 hPa 0,0 l/m 0,3 km/h (0 Bft) O-NO 67 0 min 0,0 UV-I 6,0 C 7,9 C 0,0 km/h (0 Bft)
07.10.2012 03:15 7,4 C 19,6 C 8,7 C 7,8 C 7,8 C 0,4 C 90 % 95 % 0 % 1014,9 hPa 0,0 l/m 0,3 km/h (0 Bft) NO 45 0 min 0,0 UV-I 5,9 C 7,8 C 0,0 km/h (0 Bft)
07.10.2012 03:20 7,5 C 19,6 C 8,7 C 7,8 C 7,8 C 0,3 C 90 % 95 % 0 % 1014,4 hPa 0,0 l/m 0,0 km/h (0 Bft) NO 45 0 min 0,0 UV-I 6,0 C 7,8 C 0,0 km/h (0 Bft)
07.10.2012 03:25 7,5 C 19,5 C 8,7 C 7,8 C 7,8 C 0,3 C 90 % 95 % 0 % 1014,4 hPa 0,0 l/m 0,0 km/h (0 Bft) O-NO 67 0 min 0,0 UV-I 6,0 C 7,8 C 0,0 km/h (0 Bft)
07.10.2012 03:30 7,5 C 19,5 C 8,6 C 7,8 C 7,8 C 0,3 C 90 % 95 % 0 % 1014,4 hPa 0,0 l/m 0,0 km/h (0 Bft) NO 45 0 min 0,0 UV-I 6,0 C 7,8 C 0,0 km/h (0 Bft)
07.10.2012 03:35 7,3 C 19,5 C 8,7 C 7,8 C 7,8 C 0,5 C 90 % 95 % 0 % 1014,4 hPa 0,0 l/m 0,0 km/h (0 Bft) O-NO 67 0 min 0,0 UV-I 5,8 C 7,8 C 0,0 km/h (0 Bft)
07.10.2012 03:40 7,3 C 19,5 C 8,7 C 7,8 C 7,8 C 0,5 C 90 % 95 % 0 % 1014,1 hPa 0,0 l/m 0,0 km/h (0 Bft) O-NO 67 0 min 0,0 UV-I 5,8 C 7,8 C 0,0 km/h (0 Bft)
07.10.2012 03:45 7,3 C 19,5 C 8,7 C 7,7 C 7,7 C 0,4 C 90 % 95 % 0 % 1014,1 hPa 0,0 l/m 0,0 km/h (0 Bft) NO 45 0 min 0,0 UV-I 5,8 C 7,7 C 0,0 km/h (0 Bft)
07.10.2012 03:50 7,2 C 19,5 C 8,7 C 7,6 C 7,6 C 0,4 C 90 % 95 % 0 % 1014,1 hPa 0,0 l/m 0,0 km/h (0 Bft) W-NW 292 0 min 0,0 UV-I 5,7 C 7,6 C 0,0 km/h (0 Bft)
07.10.2012 03:55 7,2 C 19,5 C 8,6 C 7,7 C 7,7 C 0,5 C 90 % 95 % 0 % 1014,1 hPa 0,0 l/m 0,0 km/h (0 Bft) W-SW 247 0 min 0,0 UV-I 5,7 C 7,7 C 0,0 km/h (0 Bft)
07.10.2012 04:00 7,2 C 19,5 C 8,7 C 7,7 C 7,7 C 0,5 C 90 % 96 % 0 % 1014,2 hPa 0,0 l/m 0,0 km/h (0 Bft) W-SW 247 0 min 0,0 UV-I 5,7 C 7,7 C 0,0 km/h (0 Bft)
07.10.2012 04:05 7,2 C 19,5 C 8,7 C 7,9 C 7,9 C 0,7 C 90 % 96 % 0 % 1014,2 hPa 0,0 l/m 0,0 km/h (0 Bft) W-SW 247 0 min 0,0 UV-I 5,7 C 7,9 C 0,0 km/h (0 Bft)
07.10.2012 04:10 7,2 C 19,5 C 8,7 C 8,0 C 8,0 C 0,8 C 90 % 96 % 0 % 1014,2 hPa 0,0 l/m 0,0 km/h (0 Bft) W-SW 247 0 min 0,0 UV-I 5,7 C 8,0 C 0,0 km/h (0 Bft)
07.10.2012 04:15 7,3 C 19,4 C 8,7 C 8,0 C 8,0 C 0,7 C 91 % 96 % 0 % 1014,2 hPa 0,0 l/m 0,0 km/h (0 Bft) O-NO 67 0 min 0,0 UV-I 5,9 C 8,0 C 0,0 km/h (0 Bft)
07.10.2012 04:20 7,3 C 19,4 C 8,7 C 8,0 C 8,0 C 0,7 C 91 % 96 % 0 % 1013,9 hPa 0,0 l/m 0,0 km/h (0 Bft) S-SW 202 0 min 0,0 UV-I 5,9 C 8,0 C 0,0 km/h (0 Bft)
07.10.2012 04:25 7,3 C 19,4 C 8,6 C 8,0 C 8,0 C 0,7 C 91 % 96 % 0 % 1013,9 hPa 0,0 l/m 0,0 km/h (0 Bft) O-NO 67 0 min 0,0 UV-I 5,9 C 8,0 C 0,0 km/h (0 Bft)
07.10.2012 04:30 7,3 C 19,4 C 8,7 C 8,0 C 8,0 C 0,7 C 91 % 96 % 0 % 1013,9 hPa 0,0 l/m 0,0 km/h (0 Bft) O-NO 67 0 min 0,0 UV-I 5,9 C 8,0 C 0,0 km/h (0 Bft)
07.10.2012 04:35 7,3 C 19,4 C 8,7 C 8,0 C 8,0 C 0,7 C 91 % 96 % 0 % 1013,9 hPa 0,0 l/m 0,0 km/h (0 Bft) O-NO 67 0 min 0,0 UV-I 5,9 C 8,0 C 0,0 km/h (0 Bft)
07.10.2012 04:40 7,3 C 19,4 C 8,5 C 8,0 C 8,0 C 0,7 C 91 % 96 % 0 % 1013,8 hPa 0,0 l/m 0,0 km/h (0 Bft) O-NO 67 0 min 0,0 UV-I 5,9 C 8,0 C 0,0 km/h (0 Bft)
07.10.2012 04:45 7,3 C 19,4 C 8,6 C 8,0 C 8,0 C 0,7 C 91 % 96 % 0 % 1013,8 hPa 0,0 l/m 0,0 km/h (0 Bft) SW 225 0 min 0,0 UV-I 5,9 C 8,0 C 0,0 km/h (0 Bft)
07.10.2012 04:50 7,4 C 19,4 C 8,8 C 8,1 C 8,1 C 0,7 C 91 % 96 % 0 % 1013,8 hPa 0,0 l/m 0,2 km/h (0 Bft) W-SW 247 0 min 0,0 UV-I 6,0 C 8,1 C 0,0 km/h (0 Bft)
07.10.2012 04:55 7,5 C 19,4 C 8,9 C 8,1 C 8,1 C 0,6 C 91 % 96 % 0 % 1013,8 hPa 0,0 l/m 0,3 km/h (0 Bft) SW 225 0 min 0,0 UV-I 6,1 C 8,1 C 0,0 km/h (0 Bft)
07.10.2012 05:00 7,5 C 19,4 C 8,7 C 8,2 C 8,2 C 0,7 C 91 % 96 % 0 % 1013,9 hPa 0,0 l/m 0,2 km/h (0 Bft) SW 225 0 min 0,0 UV-I 6,1 C 8,2 C 0,0 km/h (0 Bft)
07.10.2012 05:05 7,5 C 19,3 C 8,7 C 8,2 C 8,2 C 0,7 C 91 % 96 % 0 % 1013,9 hPa 0,0 l/m 0,0 km/h (0 Bft) O-NO 67 0 min 0,0 UV-I 6,1 C 8,2 C 0,0 km/h (0 Bft)
07.10.2012 05:10 7,4 C 19,3 C 8,6 C 8,2 C 8,2 C 0,8 C 91 % 96 % 0 % 1013,9 hPa 0,0 l/m 0,0 km/h (0 Bft) O-NO 67 0 min 0,0 UV-I 6,0 C 8,2 C 0,0 km/h (0 Bft)
07.10.2012 05:15 7,4 C 19,3 C 8,7 C 8,2 C 8,2 C 0,8 C 91 % 96 % 0 % 1013,9 hPa 0,0 l/m 0,0 km/h (0 Bft) O-NO 67 0 min 0,0 UV-I 6,0 C 8,2 C 0,0 km/h (0 Bft)
07.10.2012 05:20 7,5 C 19,3 C 8,7 C 8,2 C 8,2 C 0,7 C 91 % 96 % 0 % 1013,6 hPa 0,0 l/m 0,0 km/h (0 Bft) O-NO 67 0 min 0,0 UV-I 6,1 C 8,2 C 0,0 km/h (0 Bft)
07.10.2012 05:25 7,5 C 19,3 C 8,7 C 8,2 C 8,2 C 0,7 C 91 % 96 % 0 % 1013,6 hPa 0,0 l/m 0,0 km/h (0 Bft) O-NO 67 0 min 0,0 UV-I 6,1 C 8,2 C 0,0 km/h (0 Bft)
07.10.2012 05:30 7,5 C 19,3 C 8,7 C 8,2 C 8,2 C 0,7 C 91 % 96 % 0 % 1013,6 hPa 0,0 l/m 0,0 km/h (0 Bft) O 90 0 min 0,0 UV-I 6,1 C 8,2 C 0,0 km/h (0 Bft)
07.10.2012 05:35 7,5 C 19,3 C 8,7 C 8,2 C 8,2 C 0,7 C 91 % 96 % 0 % 1013,6 hPa 0,0 l/m 0,0 km/h (0 Bft) O-SO 112 0 min 0,0 UV-I 6,1 C 8,2 C 0,0 km/h (0 Bft)
07.10.2012 05:40 7,5 C 19,3 C 8,7 C 8,2 C 8,2 C 0,7 C 91 % 96 % 0 % 1013,5 hPa 0,0 l/m 0,0 km/h (0 Bft) N-NW 337 0 min 0,0 UV-I 6,1 C 8,2 C 0,0 km/h (0 Bft)
07.10.2012 05:45 7,5 C 19,3 C 8,7 C 8,1 C 8,1 C 0,6 C 91 % 96 % 0 % 1013,5 hPa 0,0 l/m 0,0 km/h (0 Bft) NW 315 0 min 0,0 UV-I 6,1 C 8,1 C 0,0 km/h (0 Bft)
07.10.2012 05:50 7,5 C 19,3 C 8,7 C 8,1 C 8,1 C 0,6 C 91 % 96 % 0 % 1013,5 hPa 0,0 l/m 0,0 km/h (0 Bft) N 360 0 min 0,0 UV-I 6,1 C 8,1 C 0,0 km/h (0 Bft)
07.10.2012 05:55 7,4 C 19,2 C 8,6 C 8,1 C 8,1 C 0,7 C 91 % 96 % 0 % 1013,5 hPa 0,0 l/m 0,0 km/h (0 Bft) N 360 0 min 0,0 UV-I 6,0 C 8,1 C 0,0 km/h (0 Bft)
07.10.2012 06:00 7,4 C 19,2 C 8,7 C 8,1 C 8,1 C 0,7 C 91 % 96 % 0 % 1013,2 hPa 0,0 l/m 0,0 km/h (0 Bft) O-NO 67 0 min 0,0 UV-I 6,0 C 8,1 C 0,0 km/h (0 Bft)
07.10.2012 06:05 7,5 C 19,2 C 8,5 C 8,0 C 8,0 C 0,5 C 91 % 96 % 0 % 1013,2 hPa 0,0 l/m 0,0 km/h (0 Bft) W 270 0 min 0,0 UV-I 6,1 C 8,0 C 0,0 km/h (0 Bft)
07.10.2012 06:10 7,5 C 19,2 C 8,5 C 8,0 C 8,0 C 0,5 C 91 % 96 % 0 % 1013,2 hPa 0,0 l/m 0,0 km/h (0 Bft) N-NW 337 0 min 0,0 UV-I 6,1 C 8,0 C 0,0 km/h (0 Bft)
07.10.2012 06:15 7,4 C 19,2 C 8,5 C 8,0 C 8,0 C 0,6 C 91 % 96 % 0 % 1013,2 hPa 0,0 l/m 0,0 km/h (0 Bft) N-NW 337 0 min 0,0 UV-I 6,0 C 8,0 C 0,0 km/h (0 Bft)
07.10.2012 06:20 7,4 C 19,2 C 8,5 C 8,0 C 8,0 C 0,6 C 91 % 96 % 0 % 1013,2 hPa 0,0 l/m 0,0 km/h (0 Bft) W 270 0 min 0,0 UV-I 6,0 C 8,0 C 0,0 km/h (0 Bft)
07.10.2012 06:25 7,3 C 19,2 C 8,4 C 8,0 C 8,0 C 0,7 C 91 % 96 % 0 % 1013,2 hPa 0,0 l/m 0,0 km/h (0 Bft) O-NO 67 0 min 0,0 UV-I 5,9 C 8,0 C 0,0 km/h (0 Bft)
07.10.2012 06:30 7,3 C 19,2 C 8,5 C 8,0 C 8,0 C 0,7 C 91 % 96 % 0 % 1013,2 hPa 0,0 l/m 0,0 km/h (0 Bft) O-NO 67 0 min 0,0 UV-I 5,9 C 8,0 C 0,0 km/h (0 Bft)
07.10.2012 06:35 7,3 C 19,2 C 8,5 C 8,0 C 8,0 C 0,7 C 91 % 96 % 0 % 1013,2 hPa 0,0 l/m 0,0 km/h (0 Bft) NO 45 0 min 0,0 UV-I 5,9 C 8,0 C 0,0 km/h (0 Bft)
07.10.2012 06:46 7,3 C 19,2 C 8,6 C 8,0 C 8,0 C 0,7 C 91 % 96 % 0 % 1013,3 hPa 0,0 l/m 0,0 km/h (0 Bft) N 0 0 min 0,0 UV-I 5,9 C 8,0 C 0,0 km/h (0 Bft)
07.10.2012 06:55 7,5 C 19,1 C 8,7 C 8,0 C 8,0 C 0,5 C 91 % 96 % 0 % 1013,3 hPa 0,0 l/m 0,0 km/h (0 Bft) NW 315 0 min 0,0 UV-I 6,1 C 8,0 C 0,0 km/h (0 Bft)
07.10.2012 07:00 7,4 C 19,1 C 8,7 C 8,0 C 8,0 C 0,6 C 91 % 96 % 0 % 1013,5 hPa 0,0 l/m 0,0 km/h (0 Bft) NW 315 0 min 0,0 UV-I 6,0 C 8,0 C 0,0 km/h (0 Bft)
07.10.2012 07:05 7,5 C 19,1 C 8,7 C 8,0 C 8,0 C 0,5 C 91 % 96 % 0 % 1013,5 hPa 0,0 l/m 0,0 km/h (0 Bft) W-SW 247 0 min 0,0 UV-I 6,1 C 8,0 C 0,0 km/h (0 Bft)
07.10.2012 07:10 7,5 C 19,1 C 8,7 C 8,0 C 8,0 C 0,5 C 91 % 96 % 0 % 1013,5 hPa 0,0 l/m 0,0 km/h (0 Bft) W-SW 247 0 min 0,0 UV-I 6,1 C 8,0 C 0,0 km/h (0 Bft)
07.10.2012 07:15 7,5 C 19,1 C 8,7 C 8,0 C 8,0 C 0,5 C 91 % 96 % 0 % 1013,5 hPa 0,0 l/m 0,0 km/h (0 Bft) W-SW 247 0 min 0,0 UV-I 6,1 C 8,0 C 0,0 km/h (0 Bft)
07.10.2012 07:20 7,5 C 19,1 C 8,7 C 8,0 C 8,0 C 0,5 C 91 % 96 % 0 % 1013,8 hPa 0,0 l/m 0,0 km/h (0 Bft) S 180 0 min 0,0 UV-I 6,1 C 8,0 C 0,0 km/h (0 Bft)
07.10.2012 07:25 7,5 C 19,1 C 8,7 C 8,1 C 8,1 C 0,6 C 91 % 96 % 0 % 1013,8 hPa 0,0 l/m 0,0 km/h (0 Bft) S-SW 202 0 min 0,0 UV-I 6,1 C 8,1 C 0,0 km/h (0 Bft)
07.10.2012 07:30 7,4 C 19,1 C 8,7 C 8,1 C 8,1 C 0,7 C 91 % 96 % 0 % 1013,8 hPa 0,0 l/m 0,0 km/h (0 Bft) SW 225 0 min 0,0 UV-I 6,0 C 8,1 C 0,0 km/h (0 Bft)
07.10.2012 07:35 7,4 C 19,1 C 8,7 C 8,2 C 8,2 C 0,8 C 91 % 96 % 21 % 1013,8 hPa 0,0 l/m 0,0 km/h (0 Bft) W 270 5 min 0,0 UV-I 6,0 C 8,2 C 0,0 km/h (0 Bft)
07.10.2012 07:40 7,5 C 19,1 C 8,7 C 8,2 C 8,2 C 0,7 C 91 % 96 % 18 % 1013,7 hPa 0,0 l/m 0,0 km/h (0 Bft) W 270 5 min 0,0 UV-I 6,1 C 8,2 C 0,0 km/h (0 Bft)
07.10.2012 07:45 7,5 C 19,1 C 8,8 C 8,3 C 8,3 C 0,8 C 91 % 96 % 21 % 1013,7 hPa 0,0 l/m 0,0 km/h (0 Bft) O-SO 112 5 min 0,0 UV-I 6,1 C 8,3 C 0,0 km/h (0 Bft)
07.10.2012 07:50 7,6 C 19,0 C 8,7 C 8,2 C 8,2 C 0,6 C 91 % 96 % 16 % 1013,7 hPa 0,0 l/m 0,0 km/h (0 Bft) O-SO 112 0 min 0,0 UV-I 6,2 C 8,2 C 0,0 km/h (0 Bft)
07.10.2012 07:55 7,6 C 19,0 C 8,7 C 8,2 C 8,2 C 0,6 C 91 % 96 % 16 % 1013,7 hPa 0,0 l/m 0,0 km/h (0 Bft) O-NO 67 0 min 0,0 UV-I 6,2 C 8,2 C 0,0 km/h (0 Bft)
07.10.2012 08:00 7,6 C 19,0 C 8,7 C 8,2 C 8,2 C 0,6 C 91 % 96 % 16 % 1013,6 hPa 0,0 l/m 0,0 km/h (0 Bft) O-NO 67 0 min 0,0 UV-I 6,2 C 8,2 C 0,0 km/h (0 Bft)
07.10.2012 08:05 7,6 C 19,0 C 8,8 C 8,2 C 8,2 C 0,6 C 91 % 96 % 16 % 1013,6 hPa 0,0 l/m 0,0 km/h (0 Bft) O-NO 67 0 min 0,0 UV-I 6,2 C 8,2 C 0,0 km/h (0 Bft)
07.10.2012 08:10 7,6 C 19,0 C 8,8 C 8,2 C 8,2 C 0,6 C 91 % 96 % 16 % 1013,6 hPa 0,0 l/m 0,0 km/h (0 Bft) N-NO 22 0 min 0,0 UV-I 6,2 C 8,2 C 0,0 km/h (0 Bft)
07.10.2012 08:15 7,6 C 19,0 C 8,6 C 8,2 C 8,2 C 0,6 C 91 % 96 % 16 % 1013,6 hPa 0,0 l/m 0,0 km/h (0 Bft) SW 225 0 min 0,0 UV-I 6,2 C 8,2 C 0,0 km/h (0 Bft)
07.10.2012 08:20 7,6 C 19,0 C 8,9 C 8,3 C 8,3 C 0,7 C 91 % 96 % 18 % 1013,9 hPa 0,0 l/m 0,0 km/h (0 Bft) SW 225 0 min 0,0 UV-I 6,2 C 8,3 C 0,0 km/h (0 Bft)
07.10.2012 08:25 7,7 C 19,0 C 8,9 C 8,3 C 8,3 C 0,6 C 91 % 96 % 16 % 1013,9 hPa 0,0 l/m 0,2 km/h (0 Bft) W 270 0 min 0,0 UV-I 6,3 C 8,3 C 0,0 km/h (0 Bft)
07.10.2012 08:30 7,6 C 19,0 C 8,9 C 8,4 C 8,4 C 0,8 C 92 % 96 % 21 % 1013,9 hPa 0,0 l/m 0,2 km/h (0 Bft) W 270 0 min 0,0 UV-I 6,4 C 8,4 C 3,1 km/h (1 Bft)
07.10.2012 08:35 7,6 C 19,0 C 8,8 C 8,4 C 8,4 C 0,8 C 92 % 96 % 21 % 1013,9 hPa 0,0 l/m 0,0 km/h (0 Bft) W-SW 247 0 min 0,0 UV-I 6,4 C 8,4 C 0,0 km/h (0 Bft)
07.10.2012 08:40 7,6 C 19,0 C 8,8 C 8,5 C 8,5 C 0,9 C 92 % 96 % 24 % 1014,1 hPa 0,0 l/m 0,0 km/h (0 Bft) S 180 0 min 0,0 UV-I 6,4 C 8,5 C 0,0 km/h (0 Bft)
07.10.2012 08:45 7,7 C 19,0 C 8,9 C 8,6 C 8,6 C 0,9 C 92 % 96 % 24 % 1014,1 hPa 0,0 l/m 0,0 km/h (0 Bft) W-SW 247 0 min 0,0 UV-I 6,5 C 8,6 C 0,0 km/h (0 Bft)
07.10.2012 08:50 7,7 C 19,0 C 8,9 C 8,6 C 8,6 C 0,9 C 92 % 96 % 24 % 1014,1 hPa 0,0 l/m 0,0 km/h (0 Bft) SW 225 0 min 0,0 UV-I 6,5 C 8,6 C 0,0 km/h (0 Bft)
07.10.2012 08:55 7,7 C 19,0 C 9,0 C 8,7 C 8,7 C 1,0 C 92 % 96 % 26 % 1014,1 hPa 0,0 l/m 0,0 km/h (0 Bft) W 270 0 min 0,0 UV-I 6,5 C 8,7 C 0,0 km/h (0 Bft)
07.10.2012 09:00 7,7 C 19,0 C 9,0 C 8,8 C 8,8 C 1,1 C 92 % 96 % 29 % 1014,1 hPa 0,0 l/m 0,0 km/h (0 Bft) SW 225 0 min 0,0 UV-I 6,5 C 8,8 C 0,0 km/h (0 Bft)
07.10.2012 09:05 7,9 C 19,0 C 9,1 C 8,9 C 8,9 C 1,0 C 92 % 96 % 26 % 1014,1 hPa 0,0 l/m 0,0 km/h (0 Bft) SW 225 0 min 0,0 UV-I 6,7 C 8,9 C 0,0 km/h (0 Bft)
07.10.2012 09:10 7,9 C 19,0 C 9,2 C 9,0 C 9,0 C 1,1 C 92 % 96 % 29 % 1014,1 hPa 0,0 l/m 0,0 km/h (0 Bft) SW 225 0 min 0,0 UV-I 6,7 C 9,0 C 0,0 km/h (0 Bft)
07.10.2012 09:15 8,0 C 19,0 C 9,2 C 9,0 C 9,0 C 1,0 C 92 % 96 % 26 % 1014,1 hPa 0,0 l/m 0,0 km/h (0 Bft) O-NO 67 0 min 0,0 UV-I 6,8 C 9,0 C 0,0 km/h (0 Bft)
07.10.2012 09:20 8,1 C 19,0 C 9,2 C 9,1 C 9,1 C 1,0 C 92 % 96 % 26 % 1014,4 hPa 0,0 l/m 0,0 km/h (0 Bft) O-NO 67 0 min 0,0 UV-I 6,9 C 9,1 C 0,0 km/h (0 Bft)
07.10.2012 09:25 8,0 C 18,9 C 9,3 C 9,3 C 9,3 C 1,3 C 92 % 96 % 34 % 1014,4 hPa 0,0 l/m 0,3 km/h (0 Bft) O-NO 67 0 min 0,0 UV-I 6,8 C 9,3 C 0,0 km/h (0 Bft)
07.10.2012 09:30 8,1 C 18,9 C 9,3 C 9,4 C 9,4 C 1,3 C 92 % 96 % 34 % 1014,4 hPa 0,0 l/m 0,3 km/h (0 Bft) O-NO 67 0 min 0,0 UV-I 6,9 C 9,4 C 0,0 km/h (0 Bft)
07.10.2012 09:35 8,1 C 18,9 C 9,4 C 9,9 C 9,9 C 1,8 C 92 % 96 % 47 % 1014,4 hPa 0,0 l/m 0,2 km/h (0 Bft) SO 135 0 min 0,1 UV-I 6,9 C 9,9 C 0,0 km/h (0 Bft)
07.10.2012 09:40 8,2 C 18,8 C 9,6 C 10,2 C 10,2 C 2,0 C 92 % 96 % 53 % 1014,2 hPa 0,0 l/m 0,0 km/h (0 Bft) O-SO 112 0 min 0,1 UV-I 7,0 C 10,2 C 0,0 km/h (0 Bft)
07.10.2012 09:45 8,3 C 18,8 C 9,5 C 10,5 C 10,5 C 2,2 C 92 % 96 % 58 % 1014,2 hPa 0,0 l/m 0,3 km/h (0 Bft) N 360 0 min 0,0 UV-I 7,1 C 10,5 C 0,0 km/h (0 Bft)
07.10.2012 09:50 8,3 C 18,8 C 9,5 C 10,5 C 10,5 C 2,2 C 92 % 96 % 58 % 1014,2 hPa 0,0 l/m 0,6 km/h (0 Bft) N-NW 337 0 min 0,1 UV-I 7,1 C 10,5 C 4,8 km/h (1 Bft)
07.10.2012 09:55 8,3 C 18,8 C 9,4 C 10,3 C 10,3 C 2,0 C 92 % 96 % 53 % 1014,2 hPa 0,0 l/m 1,0 km/h (0 Bft) SO 135 0 min 0,1 UV-I 7,1 C 10,3 C 0,0 km/h (0 Bft)
07.10.2012 10:00 8,2 C 18,8 C 9,5 C 10,2 C 10,2 C 2,0 C 92 % 96 % 53 % 1014,2 hPa 0,0 l/m 1,3 km/h (1 Bft) N-NO 22 0 min 0,1 UV-I 7,0 C 10,2 C 5,1 km/h (1 Bft)
07.10.2012 10:05 8,2 C 18,8 C 9,5 C 10,0 C 10,0 C 1,8 C 91 % 96 % 47 % 1014,2 hPa 0,0 l/m 1,4 km/h (1 Bft) S 180 0 min 0,0 UV-I 6,8 C 10,0 C 0,0 km/h (0 Bft)
07.10.2012 10:10 8,2 C 18,8 C 9,4 C 10,0 C 10,0 C 1,8 C 91 % 96 % 47 % 1014,2 hPa 0,0 l/m 1,0 km/h (0 Bft) N-NW 337 0 min 0,0 UV-I 6,8 C 10,0 C 0,0 km/h (0 Bft)
07.10.2012 10:15 8,3 C 18,8 C 9,4 C 10,0 C 10,0 C 1,7 C 91 % 95 % 45 % 1014,2 hPa 0,0 l/m 1,1 km/h (1 Bft) N-NO 22 0 min 0,1 UV-I 6,9 C 10,0 C 3,4 km/h (1 Bft)
07.10.2012 10:20 8,2 C 18,8 C 9,5 C 10,0 C 10,0 C 1,8 C 91 % 96 % 47 % 1014,6 hPa 0,0 l/m 1,3 km/h (1 Bft) N-NW 337 0 min 0,2 UV-I 6,8 C 10,0 C 0,0 km/h (0 Bft)
07.10.2012 10:25 8,3 C 18,8 C 9,6 C 10,2 C 10,2 C 1,9 C 91 % 96 % 50 % 1014,6 hPa 0,0 l/m 1,4 km/h (1 Bft) W 270 0 min 0,3 UV-I 6,9 C 10,2 C 0,0 km/h (0 Bft)
07.10.2012 10:30 8,3 C 18,8 C 9,7 C 10,4 C 10,4 C 2,1 C 91 % 96 % 55 % 1014,6 hPa 0,0 l/m 1,6 km/h (1 Bft) S 180 0 min 0,3 UV-I 6,9 C 10,4 C 2,4 km/h (1 Bft)
07.10.2012 10:35 8,3 C 18,7 C 9,7 C 10,4 C 10,4 C 2,1 C 91 % 96 % 55 % 1014,6 hPa 0,0 l/m 1,8 km/h (1 Bft) S-SW 202 0 min 0,3 UV-I 6,9 C 10,4 C 2,7 km/h (1 Bft)
07.10.2012 10:40 8,3 C 18,7 C 9,8 C 10,5 C 10,5 C 2,2 C 91 % 96 % 58 % 1015,1 hPa 0,0 l/m 1,8 km/h (1 Bft) W-SW 247 0 min 0,4 UV-I 6,9 C 10,5 C 2,9 km/h (1 Bft)
07.10.2012 10:45 8,4 C 18,7 C 9,9 C 10,9 C 10,9 C 2,5 C 91 % 96 % 66 % 1015,1 hPa 0,0 l/m 2,3 km/h (1 Bft) NW 315 0 min 0,5 UV-I 7,0 C 10,9 C 5,1 km/h (1 Bft)
07.10.2012 10:50 8,5 C 18,7 C 9,9 C 10,8 C 10,8 C 2,3 C 91 % 96 % 61 % 1015,1 hPa 0,0 l/m 1,8 km/h (1 Bft) SW 225 0 min 0,4 UV-I 7,1 C 10,8 C 1,8 km/h (1 Bft)
07.10.2012 10:55 8,5 C 18,7 C 9,9 C 10,7 C 10,7 C 2,2 C 91 % 96 % 58 % 1015,1 hPa 0,0 l/m 1,8 km/h (1 Bft) W 270 0 min 0,4 UV-I 7,1 C 10,7 C 4,0 km/h (1 Bft)
07.10.2012 11:00 8,4 C 18,7 C 9,7 C 10,3 C 10,3 C 1,9 C 91 % 95 % 50 % 1015,4 hPa 0,0 l/m 2,3 km/h (1 Bft) SW 225 0 min 0,4 UV-I 7,0 C 10,3 C 2,3 km/h (1 Bft)
07.10.2012 11:05 8,4 C 18,7 C 9,7 C 10,0 C 10,0 C 1,6 C 90 % 95 % 42 % 1015,4 hPa 0,0 l/m 2,1 km/h (1 Bft) W-SW 247 0 min 0,3 UV-I 6,9 C 10,0 C 0,0 km/h (0 Bft)
07.10.2012 11:10 8,4 C 18,7 C 9,9 C 10,2 C 10,2 C 1,8 C 90 % 95 % 47 % 1015,4 hPa 0,0 l/m 1,3 km/h (1 Bft) W-SW 247 0 min 0,2 UV-I 6,9 C 10,2 C 6,1 km/h (2 Bft)
07.10.2012 11:15 8,6 C 18,7 C 10,0 C 10,8 C 10,8 C 2,2 C 90 % 95 % 58 % 1015,4 hPa 0,0 l/m 1,1 km/h (1 Bft) W-SW 247 0 min 0,5 UV-I 7,1 C 10,8 C 3,2 km/h (1 Bft)
07.10.2012 11:20 8,6 C 18,7 C 10,1 C 11,2 C 11,2 C 2,6 C 90 % 95 % 68 % 1015,5 hPa 0,0 l/m 1,6 km/h (1 Bft) W-SW 247 0 min 0,7 UV-I 7,1 C 11,2 C 6,1 km/h (2 Bft)
07.10.2012 11:25 8,9 C 18,6 C 10,5 C 11,9 C 11,9 C 3,0 C 90 % 95 % 79 % 1015,5 hPa 0,0 l/m 2,1 km/h (1 Bft) S-SW 202 0 min 0,8 UV-I 7,4 C 11,9 C 4,3 km/h (1 Bft)
07.10.2012 11:30 9,1 C 18,6 C 10,5 C 12,2 C 12,2 C 3,1 C 90 % 95 % 82 % 1015,5 hPa 0,0 l/m 2,3 km/h (1 Bft) SW 225 0 min 0,7 UV-I 7,5 C 12,2 C 1,6 km/h (1 Bft)
07.10.2012 11:35 9,1 C 18,6 C 10,5 C 12,4 C 12,4 C 3,3 C 90 % 95 % 87 % 1015,5 hPa 0,0 l/m 1,6 km/h (1 Bft) W 270 5 min 0,8 UV-I 7,5 C 12,4 C 2,7 km/h (1 Bft)
07.10.2012 11:40 9,2 C 18,6 C 10,5 C 12,4 C 12,4 C 3,2 C 90 % 95 % 84 % 1015,6 hPa 0,0 l/m 1,1 km/h (1 Bft) N-NW 337 0 min 0,8 UV-I 7,6 C 12,4 C 6,3 km/h (2 Bft)
07.10.2012 11:45 9,2 C 18,6 C 10,5 C 12,1 C 12,1 C 2,9 C 89 % 95 % 76 % 1015,6 hPa 0,0 l/m 1,0 km/h (0 Bft) SO 135 0 min 0,8 UV-I 7,5 C 12,1 C 1,8 km/h (1 Bft)
07.10.2012 11:50 9,2 C 18,5 C 10,5 C 12,0 C 12,0 C 2,8 C 89 % 95 % 74 % 1015,6 hPa 0,0 l/m 1,3 km/h (1 Bft) S-SW 202 0 min 0,9 UV-I 7,5 C 12,0 C 2,9 km/h (1 Bft)
07.10.2012 11:55 9,2 C 18,5 C 10,6 C 12,0 C 12,0 C 2,8 C 87 % 95 % 74 % 1015,6 hPa 0,0 l/m 3,4 km/h (1 Bft) S 180 0 min 1,0 UV-I 7,2 C 12,0 C 4,5 km/h (1 Bft)
07.10.2012 12:00 9,3 C 18,5 C 10,7 C 12,0 C 12,0 C 2,7 C 87 % 95 % 71 % 1015,6 hPa 0,0 l/m 3,5 km/h (1 Bft) W 270 0 min 0,9 UV-I 7,2 C 12,0 C 10,5 km/h (2 Bft)
07.10.2012 12:05 9,4 C 18,5 C 10,6 C 11,8 C 11,8 C 2,4 C 86 % 95 % 63 % 1015,6 hPa 0,0 l/m 3,7 km/h (1 Bft) W-SW 247 0 min 0,9 UV-I 7,2 C 11,8 C 5,0 km/h (1 Bft)
07.10.2012 12:10 9,5 C 18,5 C 10,9 C 11,9 C 11,9 C 2,4 C 86 % 96 % 63 % 1015,6 hPa 0,0 l/m 3,4 km/h (1 Bft) S-SO 157 0 min 0,9 UV-I 7,3 C 11,9 C 2,7 km/h (1 Bft)
07.10.2012 12:15 9,9 C 18,4 C 11,1 C 12,9 C 12,9 C 3,0 C 86 % 95 % 79 % 1015,6 hPa 0,0 l/m 2,7 km/h (1 Bft) W-NW 292 0 min 0,9 UV-I 7,7 C 12,9 C 7,6 km/h (2 Bft)
07.10.2012 12:20 9,9 C 18,4 C 11,2 C 13,2 C 13,2 C 3,3 C 84 % 95 % 87 % 1016,5 hPa 0,0 l/m 3,4 km/h (1 Bft) S-SW 202 5 min 0,9 UV-I 7,3 C 13,2 C 4,7 km/h (1 Bft)
07.10.2012 12:25 10,1 C 18,4 C 11,2 C 14,0 C 14,0 C 3,9 C 82 % 95 % 100 % 1016,5 hPa 0,0 l/m 4,8 km/h (1 Bft) N-NW 337 5 min 0,8 UV-I 7,2 C 14,0 C 2,6 km/h (1 Bft)
07.10.2012 12:30 10,2 C 18,4 C 11,1 C 14,0 C 14,0 C 3,8 C 82 % 95 % 100 % 1016,5 hPa 0,0 l/m 4,3 km/h (1 Bft) W-SW 247 5 min 0,7 UV-I 7,3 C 14,0 C 12,2 km/h (2 Bft)
07.10.2012 12:35 10,3 C 18,3 C 11,2 C 13,6 C 13,6 C 3,3 C 81 % 95 % 87 % 1016,5 hPa 0,0 l/m 3,4 km/h (1 Bft) SW 225 5 min 0,8 UV-I 7,2 C 13,6 C 4,5 km/h (1 Bft)
07.10.2012 12:42 10,4 C 18,3 C 11,2 C 14,7 C 14,7 C 4,3 C 81 % 95 % 100 % 1016,4 hPa 0,0 l/m 3,9 km/h (1 Bft) N 0 7 min 1,6 UV-I 7,3 C 14,7 C 3,9 km/h (1 Bft)
07.10.2012 12:55 10,9 C 17,4 C 11,2 C 14,6 C 14,6 C 3,7 C 77 % 94 % 97 % 1016,4 hPa 0,0 l/m 5,8 km/h (2 Bft) W-SW 247 13 min 1,0 UV-I 7,0 C 14,6 C 8,0 km/h (2 Bft)
07.10.2012 13:00 11,0 C 17,5 C 11,5 C 15,5 C 15,5 C 4,5 C 77 % 94 % 100 % 1016,8 hPa 0,0 l/m 6,1 km/h (2 Bft) W-SW 247 5 min 1,5 UV-I 7,1 C 15,5 C 8,7 km/h (2 Bft)
07.10.2012 13:05 11,3 C 17,6 C 11,7 C 16,9 C 16,9 C 5,6 C 76 % 94 % 100 % 1016,8 hPa 0,0 l/m 5,8 km/h (2 Bft) W 270 5 min 1,4 UV-I 7,2 C 16,9 C 7,4 km/h (2 Bft)
07.10.2012 13:10 11,5 C 17,6 C 11,7 C 17,2 C 17,2 C 5,7 C 76 % 94 % 100 % 1016,8 hPa 0,0 l/m 6,1 km/h (2 Bft) W 270 5 min 1,0 UV-I 7,4 C 17,2 C 12,4 km/h (3 Bft)
07.10.2012 13:15 11,5 C 17,7 C 11,7 C 17,0 C 17,0 C 5,5 C 77 % 94 % 100 % 1016,8 hPa 0,0 l/m 5,1 km/h (1 Bft) SW 225 5 min 1,0 UV-I 7,6 C 17,0 C 5,1 km/h (1 Bft)
07.10.2012 13:20 11,7 C 17,7 C 11,7 C 17,3 C 17,3 C 5,6 C 75 % 94 % 100 % 1017,4 hPa 0,0 l/m 5,5 km/h (1 Bft) S 180 5 min 1,0 UV-I 7,4 C 17,3 C 6,4 km/h (2 Bft)
07.10.2012 13:25 11,8 C 17,8 C 11,7 C 17,1 C 17,1 C 5,3 C 74 % 94 % 100 % 1017,4 hPa 0,0 l/m 4,8 km/h (1 Bft) SW 225 5 min 1,0 UV-I 7,3 C 17,1 C 2,6 km/h (1 Bft)
07.10.2012 13:30 11,9 C 17,8 C 11,8 C 16,8 C 16,8 C 4,9 C 74 % 94 % 100 % 1017,4 hPa 0,0 l/m 4,5 km/h (1 Bft) W-SW 247 5 min 1,2 UV-I 7,4 C 16,8 C 5,6 km/h (1 Bft)
07.10.2012 13:35 12,0 C 17,8 C 12,0 C 16,4 C 16,4 C 4,4 C 73 % 93 % 100 % 1017,4 hPa 0,0 l/m 5,6 km/h (1 Bft) W-SW 247 5 min 1,2 UV-I 7,3 C 16,4 C 9,0 km/h (2 Bft)
07.10.2012 13:40 12,1 C 17,8 C 12,2 C 16,9 C 16,9 C 4,8 C 74 % 93 % 100 % 1017,1 hPa 0,0 l/m 5,5 km/h (1 Bft) W-NW 292 5 min 1,2 UV-I 7,6 C 16,9 C 4,2 km/h (1 Bft)
07.10.2012 13:45 12,2 C 17,8 C 12,4 C 17,8 C 17,8 C 5,6 C 75 % 93 % 100 % 1017,1 hPa 0,0 l/m 3,9 km/h (1 Bft) S-SO 157 5 min 1,2 UV-I 7,9 C 17,8 C 9,2 km/h (2 Bft)
07.10.2012 13:50 12,4 C 17,8 C 12,7 C 18,7 C 18,7 C 6,3 C 73 % 93 % 100 % 1017,1 hPa 0,0 l/m 4,0 km/h (1 Bft) S 180 5 min 1,1 UV-I 7,7 C 18,7 C 3,4 km/h (1 Bft)
07.10.2012 13:55 12,5 C 17,8 C 12,5 C 18,1 C 18,1 C 5,6 C 73 % 93 % 100 % 1017,1 hPa 0,0 l/m 4,7 km/h (1 Bft) S 180 5 min 1,1 UV-I 7,8 C 18,1 C 4,8 km/h (1 Bft)
07.10.2012 14:00 12,4 C 17,8 C 12,3 C 16,7 C 16,7 C 4,3 C 73 % 93 % 100 % 1017,5 hPa 0,0 l/m 3,9 km/h (1 Bft) W-SW 247 5 min 1,0 UV-I 7,7 C 16,7 C 2,7 km/h (1 Bft)
07.10.2012 14:05 12,3 C 17,8 C 12,5 C 16,7 C 16,7 C 4,4 C 74 % 93 % 100 % 1017,5 hPa 0,0 l/m 3,7 km/h (1 Bft) W 270 5 min 1,0 UV-I 7,8 C 16,7 C 3,7 km/h (1 Bft)
07.10.2012 14:10 12,5 C 17,8 C 12,5 C 16,6 C 16,6 C 4,1 C 73 % 93 % 100 % 1017,5 hPa 0,0 l/m 4,2 km/h (1 Bft) S 180 5 min 1,0 UV-I 7,8 C 16,6 C 7,6 km/h (2 Bft)
07.10.2012 14:15 12,3 C 17,8 C 12,3 C 15,2 C 15,2 C 2,9 C 72 % 92 % 76 % 1017,5 hPa 0,0 l/m 4,3 km/h (1 Bft) W-SW 247 0 min 0,8 UV-I 7,4 C 15,2 C 6,0 km/h (2 Bft)
07.10.2012 14:20 12,2 C 17,8 C 12,3 C 14,5 C 14,5 C 2,3 C 71 % 92 % 61 % 1017,7 hPa 0,0 l/m 5,3 km/h (1 Bft) NW 315 0 min 0,6 UV-I 7,1 C 14,5 C 8,9 km/h (2 Bft)
07.10.2012 14:25 12,0 C 17,8 C 12,1 C 13,9 C 13,9 C 1,9 C 72 % 91 % 50 % 1017,7 hPa 0,0 l/m 5,5 km/h (1 Bft) W-SW 247 0 min 0,7 UV-I 7,1 C 13,9 C 6,3 km/h (2 Bft)
07.10.2012 14:30 12,0 C 17,8 C 12,1 C 14,0 C 14,0 C 2,0 C 72 % 91 % 53 % 1017,7 hPa 0,0 l/m 5,0 km/h (1 Bft) SW 225 0 min 0,8 UV-I 7,1 C 14,0 C 15,4 km/h (3 Bft)
07.10.2012 14:35 12,1 C 17,8 C 12,3 C 14,7 C 14,7 C 2,6 C 72 % 91 % 68 % 1017,7 hPa 0,0 l/m 5,5 km/h (1 Bft) W-SW 247 0 min 0,8 UV-I 7,2 C 14,7 C 10,5 km/h (2 Bft)
07.10.2012 14:40 12,1 C 17,9 C 12,2 C 14,5 C 14,5 C 2,4 C 72 % 91 % 63 % 1017,2 hPa 0,0 l/m 6,6 km/h (2 Bft) S-SW 202 0 min 0,7 UV-I 7,2 C 14,5 C 16,1 km/h (3 Bft)
07.10.2012 14:45 12,0 C 17,9 C 12,0 C 13,6 C 13,6 C 1,6 C 73 % 91 % 42 % 1017,2 hPa 0,0 l/m 7,2 km/h (2 Bft) W-SW 247 0 min 0,5 UV-I 7,3 C 13,6 C 10,1 km/h (2 Bft)
07.10.2012 14:50 11,9 C 17,9 C 11,9 C 13,2 C 13,2 C 1,3 C 73 % 91 % 34 % 1017,2 hPa 0,0 l/m 6,9 km/h (2 Bft) W-SW 247 0 min 0,5 UV-I 7,2 C 13,2 C 6,4 km/h (2 Bft)
07.10.2012 14:55 11,8 C 17,9 C 11,9 C 12,7 C 12,7 C 0,9 C 73 % 91 % 24 % 1017,2 hPa 0,0 l/m 7,2 km/h (2 Bft) W-SW 247 0 min 0,5 UV-I 7,1 C 12,7 C 9,3 km/h (2 Bft)
07.10.2012 15:00 11,8 C 17,9 C 11,9 C 12,8 C 12,8 C 1,0 C 74 % 91 % 26 % 1017,4 hPa 0,0 l/m 6,4 km/h (2 Bft) W-SW 247 0 min 0,6 UV-I 7,3 C 12,8 C 6,8 km/h (2 Bft)
07.10.2012 15:05 11,9 C 17,9 C 11,9 C 13,1 C 13,1 C 1,2 C 74 % 91 % 32 % 1017,4 hPa 0,0 l/m 4,8 km/h (1 Bft) S 180 0 min 0,4 UV-I 7,4 C 13,1 C 6,4 km/h (2 Bft)
07.10.2012 15:10 11,9 C 17,9 C 11,9 C 13,2 C 13,2 C 1,3 C 73 % 91 % 34 % 1017,4 hPa 0,0 l/m 4,8 km/h (1 Bft) SO 135 0 min 0,3 UV-I 7,2 C 13,2 C 7,4 km/h (2 Bft)
07.10.2012 15:15 11,8 C 17,9 C 11,9 C 13,1 C 13,1 C 1,3 C 73 % 91 % 34 % 1017,4 hPa 0,0 l/m 5,1 km/h (1 Bft) W-SW 247 0 min 0,3 UV-I 7,1 C 13,1 C 5,5 km/h (1 Bft)
07.10.2012 15:20 12,1 C 17,8 C 12,0 C 13,6 C 13,6 C 1,5 C 73 % 91 % 39 % 1017,7 hPa 0,0 l/m 4,8 km/h (1 Bft) S 180 0 min 0,4 UV-I 7,4 C 13,6 C 6,9 km/h (2 Bft)
07.10.2012 15:25 12,6 C 17,8 C 12,4 C 15,5 C 15,5 C 2,9 C 71 % 91 % 76 % 1017,7 hPa 0,0 l/m 4,2 km/h (1 Bft) SW 225 0 min 0,6 UV-I 7,5 C 15,5 C 4,3 km/h (1 Bft)
07.10.2012 15:30 12,8 C 17,8 C 12,5 C 15,6 C 15,6 C 2,8 C 69 % 90 % 74 % 1017,7 hPa 0,0 l/m 4,7 km/h (1 Bft) W-SW 247 0 min 0,5 UV-I 7,3 C 15,6 C 13,8 km/h (3 Bft)
07.10.2012 15:35 12,7 C 17,8 C 12,2 C 14,4 C 14,4 C 1,7 C 67 % 89 % 45 % 1017,7 hPa 0,0 l/m 7,1 km/h (2 Bft) S 180 0 min 0,5 UV-I 6,7 C 14,4 C 8,5 km/h (2 Bft)
07.10.2012 15:40 12,4 C 17,8 C 12,1 C 13,8 C 13,8 C 1,4 C 67 % 89 % 37 % 1017,8 hPa 0,0 l/m 7,1 km/h (2 Bft) S 180 0 min 0,5 UV-I 6,4 C 13,8 C 5,8 km/h (2 Bft)
07.10.2012 15:45 12,9 C 17,8 C 12,3 C 15,0 C 15,0 C 2,1 C 66 % 88 % 55 % 1017,8 hPa 0,0 l/m 5,6 km/h (1 Bft) W-SW 247 0 min 0,4 UV-I 6,7 C 15,0 C 9,8 km/h (2 Bft)
07.10.2012 15:50 13,2 C 17,8 C 12,5 C 15,9 C 15,9 C 2,7 C 66 % 88 % 71 % 1017,8 hPa 0,0 l/m 5,1 km/h (1 Bft) W-SW 247 0 min 0,4 UV-I 7,0 C 15,9 C 6,3 km/h (2 Bft)
07.10.2012 15:55 13,4 C 17,8 C 12,7 C 16,6 C 16,6 C 3,2 C 64 % 87 % 84 % 1017,8 hPa 0,0 l/m 5,3 km/h (1 Bft) W-SW 247 0 min 0,4 UV-I 6,7 C 16,6 C 7,6 km/h (2 Bft)
07.10.2012 16:00 13,5 C 17,8 C 12,8 C 16,8 C 16,8 C 3,3 C 65 % 87 % 87 % 1017,8 hPa 0,0 l/m 5,3 km/h (1 Bft) SW 225 5 min 0,3 UV-I 7,1 C 16,8 C 7,7 km/h (2 Bft)
07.10.2012 16:05 13,9 C 17,8 C 12,9 C 17,6 C 17,6 C 3,7 C 64 % 86 % 97 % 1017,8 hPa 0,0 l/m 5,3 km/h (1 Bft) SW 225 5 min 0,1 UV-I 7,2 C 17,6 C 12,9 km/h (3 Bft)
07.10.2012 16:10 13,6 C 17,8 C 12,8 C 17,1 C 17,1 C 3,5 C 63 % 85 % 92 % 1017,8 hPa 0,0 l/m 5,3 km/h (1 Bft) S-SW 202 5 min 0,1 UV-I 6,7 C 17,1 C 7,2 km/h (2 Bft)
07.10.2012 16:15 13,9 C 17,8 C 13,0 C 17,4 C 17,4 C 3,5 C 62 % 84 % 92 % 1017,8 hPa 0,0 l/m 5,6 km/h (1 Bft) SW 225 5 min 0,2 UV-I 6,7 C 17,4 C 5,5 km/h (1 Bft)
07.10.2012 16:20 14,0 C 17,8 C 13,0 C 17,7 C 17,7 C 3,7 C 61 % 85 % 97 % 1017,8 hPa 0,0 l/m 5,1 km/h (1 Bft) W-SW 247 5 min 0,2 UV-I 6,6 C 17,7 C 5,6 km/h (1 Bft)
07.10.2012 16:25 14,0 C 17,8 C 13,1 C 17,7 C 17,7 C 3,7 C 58 % 82 % 97 % 1017,8 hPa 0,0 l/m 5,1 km/h (1 Bft) W-SW 247 5 min 0,2 UV-I 5,9 C 17,7 C 10,5 km/h (2 Bft)
07.10.2012 16:30 13,8 C 17,8 C 13,1 C 17,5 C 17,5 C 3,7 C 59 % 83 % 97 % 1017,8 hPa 0,0 l/m 5,3 km/h (1 Bft) W 270 5 min 0,2 UV-I 5,9 C 17,5 C 7,4 km/h (2 Bft)
07.10.2012 16:35 13,6 C 17,8 C 13,1 C 17,3 C 17,3 C 3,7 C 59 % 82 % 97 % 1017,8 hPa 0,0 l/m 6,1 km/h (2 Bft) SW 225 5 min 0,1 UV-I 5,7 C 17,3 C 11,3 km/h (2 Bft)
07.10.2012 16:40 13,5 C 17,8 C 12,9 C 16,8 C 16,8 C 3,3 C 58 % 82 % 87 % 1018,2 hPa 0,0 l/m 6,1 km/h (2 Bft) SW 225 5 min 0,1 UV-I 5,4 C 16,8 C 8,2 km/h (2 Bft)
07.10.2012 16:45 13,3 C 17,7 C 12,8 C 16,0 C 16,0 C 2,7 C 60 % 83 % 71 % 1018,2 hPa 0,0 l/m 5,0 km/h (1 Bft) SW 225 5 min 0,1 UV-I 5,7 C 16,0 C 5,1 km/h (1 Bft)
07.10.2012 16:50 13,2 C 17,7 C 12,6 C 15,5 C 15,5 C 2,3 C 61 % 83 % 61 % 1018,2 hPa 0,0 l/m 4,2 km/h (1 Bft) W-SW 247 0 min 0,1 UV-I 5,8 C 15,5 C 7,4 km/h (2 Bft)
07.10.2012 16:55 13,1 C 17,7 C 12,7 C 15,5 C 15,5 C 2,4 C 60 % 83 % 63 % 1018,2 hPa 0,0 l/m 4,3 km/h (1 Bft) SW 225 5 min 0,0 UV-I 5,5 C 15,5 C 7,2 km/h (2 Bft)
07.10.2012 17:00 13,1 C 17,7 C 12,7 C 15,9 C 15,9 C 2,8 C 60 % 82 % 74 % 1018,6 hPa 0,0 l/m 4,8 km/h (1 Bft) SW 225 5 min 0,0 UV-I 5,5 C 15,9 C 7,6 km/h (2 Bft)
07.10.2012 17:05 13,1 C 17,7 C 12,8 C 16,4 C 16,4 C 3,3 C 59 % 80 % 87 % 1018,6 hPa 0,0 l/m 5,3 km/h (1 Bft) W-SW 247 5 min 0,0 UV-I 5,3 C 16,4 C 6,8 km/h (2 Bft)
07.10.2012 17:10 13,1 C 17,7 C 12,8 C 16,2 C 16,2 C 3,1 C 59 % 80 % 82 % 1018,6 hPa 0,0 l/m 5,8 km/h (2 Bft) S 180 5 min 0,0 UV-I 5,3 C 16,2 C 4,8 km/h (1 Bft)
07.10.2012 17:15 12,9 C 17,7 C 12,7 C 16,0 C 16,0 C 3,1 C 59 % 80 % 82 % 1018,6 hPa 0,0 l/m 6,0 km/h (2 Bft) W-SW 247 5 min 0,0 UV-I 5,1 C 16,0 C 6,0 km/h (2 Bft)
07.10.2012 17:20 12,9 C 17,7 C 12,5 C 15,7 C 15,7 C 2,8 C 59 % 80 % 74 % 1018,4 hPa 0,0 l/m 5,5 km/h (1 Bft) W-NW 292 5 min 0,0 UV-I 5,1 C 15,7 C 4,0 km/h (1 Bft)
07.10.2012 17:25 12,5 C 17,7 C 12,0 C 13,9 C 13,9 C 1,4 C 60 % 81 % 37 % 1018,4 hPa 0,0 l/m 4,7 km/h (1 Bft) O 90 0 min 0,0 UV-I 5,0 C 13,9 C 10,0 km/h (2 Bft)
07.10.2012 17:30 12,3 C 17,7 C 11,9 C 13,1 C 13,1 C 0,8 C 60 % 81 % 21 % 1018,4 hPa 0,0 l/m 4,7 km/h (1 Bft) SW 225 0 min 0,0 UV-I 4,8 C 13,1 C 3,5 km/h (1 Bft)
07.10.2012 17:35 12,1 C 17,7 C 11,7 C 12,3 C 12,3 C 0,2 C 61 % 81 % 5 % 1018,4 hPa 0,0 l/m 4,2 km/h (1 Bft) SW 225 0 min 0,0 UV-I 4,8 C 12,3 C 5,1 km/h (1 Bft)
07.10.2012 17:40 12,0 C 17,7 C 11,9 C 12,7 C 12,7 C 0,7 C 62 % 82 % 18 % 1018,8 hPa 0,0 l/m 3,9 km/h (1 Bft) SW 225 0 min 0,0 UV-I 4,9 C 12,7 C 4,2 km/h (1 Bft)
07.10.2012 17:45 12,0 C 17,7 C 11,7 C 13,2 C 13,2 C 1,2 C 63 % 82 % 32 % 1018,8 hPa 0,0 l/m 3,2 km/h (1 Bft) W-SW 247 5 min 0,0 UV-I 5,2 C 13,2 C 2,3 km/h (1 Bft)
07.10.2012 17:50 12,0 C 17,7 C 11,6 C 12,8 C 12,8 C 0,8 C 64 % 82 % 21 % 1018,8 hPa 0,0 l/m 2,4 km/h (1 Bft) W-SW 247 0 min 0,0 UV-I 5,4 C 12,8 C 0,0 km/h (0 Bft)
07.10.2012 17:55 11,9 C 17,7 C 11,5 C 12,2 C 12,2 C 0,3 C 64 % 83 % 8 % 1018,8 hPa 0,0 l/m 2,1 km/h (1 Bft) W 270 0 min 0,0 UV-I 5,3 C 12,2 C 2,6 km/h (1 Bft)
07.10.2012 18:00 11,7 C 17,8 C 11,5 C 11,9 C 11,9 C 0,2 C 64 % 83 % 5 % 1019,2 hPa 0,0 l/m 2,9 km/h (1 Bft) W-SW 247 0 min 0,0 UV-I 5,1 C 11,9 C 6,6 km/h (2 Bft)
07.10.2012 18:05 11,6 C 17,7 C 11,3 C 11,6 C 11,6 C 0,0 C 65 % 83 % 0 % 1019,2 hPa 0,0 l/m 3,1 km/h (1 Bft) S-SW 202 0 min 0,0 UV-I 5,2 C 11,6 C 1,6 km/h (1 Bft)
07.10.2012 18:10 11,6 C 17,7 C 11,2 C 11,6 C 11,5 C 0,0 C 65 % 83 % 0 % 1019,2 hPa 0,0 l/m 2,7 km/h (1 Bft) W 270 0 min 0,0 UV-I 5,2 C 11,5 C 4,7 km/h (1 Bft)
07.10.2012 18:15 11,4 C 17,7 C 11,2 C 11,4 C 11,3 C 0,0 C 66 % 84 % 0 % 1019,2 hPa 0,0 l/m 2,4 km/h (1 Bft) SW 225 0 min 0,0 UV-I 5,3 C 11,3 C 5,5 km/h (1 Bft)
07.10.2012 18:20 11,5 C 17,7 C 11,1 C 11,5 C 11,5 C 0,0 C 66 % 83 % 0 % 1019,8 hPa 0,0 l/m 2,7 km/h (1 Bft) W-SW 247 0 min 0,0 UV-I 5,4 C 11,5 C 3,9 km/h (1 Bft)
07.10.2012 18:25 11,3 C 17,7 C 11,1 C 11,3 C 11,3 C 0,0 C 67 % 84 % 0 % 1019,8 hPa 0,0 l/m 3,1 km/h (1 Bft) SW 225 0 min 0,0 UV-I 5,4 C 11,3 C 4,5 km/h (1 Bft)
07.10.2012 18:30 11,2 C 17,7 C 10,9 C 11,1 C 11,0 C 0,0 C 67 % 84 % 0 % 1019,8 hPa 0,0 l/m 2,7 km/h (1 Bft) SW 225 0 min 0,0 UV-I 5,3 C 11,0 C 2,9 km/h (1 Bft)
07.10.2012 18:35 11,1 C 17,7 C 10,9 C 11,0 C 10,9 C 0,0 C 67 % 84 % 0 % 1019,8 hPa 0,0 l/m 2,9 km/h (1 Bft) S 180 0 min 0,0 UV-I 5,2 C 10,9 C 5,5 km/h (1 Bft)
07.10.2012 18:46 11,1 C 17,7 C 10,8 C 11,0 C 10,9 C 0,0 C 68 % 84 % 0 % 1019,8 hPa 0,0 l/m 4,3 km/h (1 Bft) N 0 0 min 0,0 UV-I 5,4 C 10,9 C 7,7 km/h (2 Bft)
07.10.2012 18:55 11,1 C 17,7 C 10,8 C 11,0 C 10,9 C 0,0 C 69 % 84 % 0 % 1019,8 hPa 0,0 l/m 4,2 km/h (1 Bft) W-SW 247 0 min 0,0 UV-I 5,6 C 10,9 C 3,4 km/h (1 Bft)
07.10.2012 19:00 11,1 C 17,7 C 10,8 C 11,0 C 10,8 C 0,0 C 69 % 84 % 0 % 1020,0 hPa 0,0 l/m 4,7 km/h (1 Bft) S 180 0 min 0,0 UV-I 5,6 C 10,8 C 4,8 km/h (1 Bft)
07.10.2012 19:05 11,1 C 17,7 C 10,7 C 11,0 C 10,7 C 0,0 C 69 % 84 % 0 % 1020,0 hPa 0,0 l/m 5,1 km/h (1 Bft) SW 225 0 min 0,0 UV-I 5,6 C 10,7 C 6,1 km/h (2 Bft)
07.10.2012 19:10 11,1 C 17,7 C 10,7 C 11,0 C 10,8 C 0,0 C 69 % 84 % 0 % 1020,0 hPa 0,0 l/m 4,2 km/h (1 Bft) W-SW 247 0 min 0,0 UV-I 5,6 C 10,8 C 2,7 km/h (1 Bft)
07.10.2012 19:15 10,9 C 17,7 C 10,7 C 10,8 C 10,7 C 0,0 C 70 % 84 % 0 % 1020,0 hPa 0,0 l/m 3,4 km/h (1 Bft) W-SW 247 0 min 0,0 UV-I 5,6 C 10,7 C 6,1 km/h (2 Bft)
07.10.2012 19:20 10,8 C 17,7 C 10,7 C 10,8 C 10,7 C 0,0 C 70 % 84 % 0 % 1020,3 hPa 0,0 l/m 3,4 km/h (1 Bft) W-SW 247 0 min 0,0 UV-I 5,6 C 10,7 C 3,7 km/h (1 Bft)
07.10.2012 19:25 10,9 C 17,7 C 10,5 C 10,8 C 10,6 C 0,0 C 70 % 85 % 0 % 1020,3 hPa 0,0 l/m 3,4 km/h (1 Bft) SW 225 0 min 0,0 UV-I 5,6 C 10,6 C 3,9 km/h (1 Bft)
07.10.2012 19:30 10,8 C 17,7 C 10,4 C 10,7 C 10,4 C 0,0 C 70 % 85 % 0 % 1020,3 hPa 0,0 l/m 3,1 km/h (1 Bft) SW 225 0 min 0,0 UV-I 5,6 C 10,4 C 3,2 km/h (1 Bft)
07.10.2012 19:35 10,7 C 17,7 C 10,3 C 10,5 C 10,0 C 0,0 C 71 % 85 % 0 % 1020,3 hPa 0,0 l/m 3,5 km/h (1 Bft) W-SW 247 0 min 0,0 UV-I 5,7 C 10,0 C 4,8 km/h (1 Bft)
07.10.2012 19:40 10,5 C 17,6 C 10,2 C 10,2 C 9,7 C 0,0 C 71 % 85 % 0 % 1020,4 hPa 0,0 l/m 4,5 km/h (1 Bft) W-SW 247 0 min 0,0 UV-I 5,5 C 9,7 C 5,0 km/h (1 Bft)
07.10.2012 19:45 10,4 C 17,6 C 10,3 C 10,1 C 9,6 C 0,0 C 71 % 85 % 0 % 1020,4 hPa 0,0 l/m 5,0 km/h (1 Bft) W-SW 247 0 min 0,0 UV-I 5,4 C 9,3 C 4,8 km/h (1 Bft)
07.10.2012 19:50 10,4 C 17,6 C 10,2 C 10,2 C 9,7 C 0,0 C 71 % 84 % 0 % 1020,4 hPa 0,0 l/m 5,1 km/h (1 Bft) SW 225 0 min 0,0 UV-I 5,4 C 9,4 C 10,9 km/h (2 Bft)
07.10.2012 19:55 10,5 C 17,6 C 10,3 C 10,2 C 9,7 C 0,0 C 71 % 84 % 0 % 1020,4 hPa 0,0 l/m 5,6 km/h (1 Bft) W-SW 247 0 min 0,0 UV-I 5,5 C 9,2 C 6,1 km/h (2 Bft)
07.10.2012 20:00 10,4 C 17,6 C 10,1 C 10,2 C 9,7 C 0,0 C 71 % 84 % 0 % 1020,8 hPa 0,0 l/m 5,3 km/h (1 Bft) SW 225 0 min 0,0 UV-I 5,4 C 9,3 C 3,9 km/h (1 Bft)
07.10.2012 20:05 10,3 C 17,6 C 10,1 C 10,1 C 9,7 C 0,0 C 71 % 84 % 0 % 1020,8 hPa 0,0 l/m 4,8 km/h (1 Bft) SW 225 0 min 0,0 UV-I 5,3 C 9,5 C 6,6 km/h (2 Bft)
07.10.2012 20:10 10,3 C 17,6 C 10,1 C 10,1 C 9,7 C 0,0 C 71 % 84 % 0 % 1020,8 hPa 0,0 l/m 5,0 km/h (1 Bft) SW 225 0 min 0,0 UV-I 5,3 C 9,4 C 8,2 km/h (2 Bft)
07.10.2012 20:15 10,4 C 17,6 C 10,1 C 10,2 C 9,9 C 0,0 C 70 % 84 % 0 % 1020,8 hPa 0,0 l/m 5,1 km/h (1 Bft) W 270 0 min 0,0 UV-I 5,2 C 9,6 C 5,1 km/h (1 Bft)
07.10.2012 20:20 10,3 C 17,6 C 10,1 C 10,2 C 10,1 C 0,0 C 71 % 84 % 0 % 1020,9 hPa 0,0 l/m 4,7 km/h (1 Bft) W-SW 247 0 min 0,0 UV-I 5,3 C 10,1 C 5,1 km/h (1 Bft)
07.10.2012 20:25 10,3 C 17,6 C 10,1 C 10,3 C 10,2 C 0,0 C 71 % 84 % 0 % 1020,9 hPa 0,0 l/m 3,5 km/h (1 Bft) W-SW 247 0 min 0,0 UV-I 5,3 C 10,2 C 3,4 km/h (1 Bft)
07.10.2012 20:30 10,3 C 17,6 C 10,1 C 10,2 C 10,1 C 0,0 C 71 % 84 % 0 % 1020,9 hPa 0,0 l/m 3,1 km/h (1 Bft) SW 225 0 min 0,0 UV-I 5,3 C 10,1 C 2,9 km/h (1 Bft)
07.10.2012 20:35 10,2 C 17,6 C 10,1 C 10,1 C 9,9 C 0,0 C 72 % 85 % 0 % 1020,9 hPa 0,0 l/m 2,9 km/h (1 Bft) S-SW 202 0 min 0,0 UV-I 5,4 C 9,9 C 6,1 km/h (2 Bft)
07.10.2012 20:40 10,1 C 17,6 C 10,0 C 10,0 C 9,8 C 0,0 C 72 % 84 % 0 % 1021,1 hPa 0,0 l/m 3,7 km/h (1 Bft) SW 225 0 min 0,0 UV-I 5,3 C 9,8 C 5,8 km/h (2 Bft)
07.10.2012 20:45 10,0 C 17,6 C 10,0 C 9,9 C 9,8 C 0,0 C 72 % 85 % 0 % 1021,1 hPa 0,0 l/m 4,2 km/h (1 Bft) SW 225 0 min 0,0 UV-I 5,2 C 9,8 C 6,4 km/h (2 Bft)
07.10.2012 20:50 10,1 C 17,6 C 9,9 C 10,0 C 9,8 C 0,0 C 73 % 85 % 0 % 1021,1 hPa 0,0 l/m 3,7 km/h (1 Bft) SW 225 0 min 0,0 UV-I 5,5 C 9,8 C 2,9 km/h (1 Bft)
07.10.2012 20:55 10,0 C 17,6 C 9,9 C 9,9 C 9,8 C 0,0 C 73 % 85 % 0 % 1021,1 hPa 0,0 l/m 3,1 km/h (1 Bft) SW 225 0 min 0,0 UV-I 5,4 C 9,8 C 3,5 km/h (1 Bft)
07.10.2012 21:00 9,9 C 17,6 C 9,9 C 9,9 C 9,8 C 0,0 C 73 % 85 % 0 % 1021,0 hPa 0,0 l/m 3,1 km/h (1 Bft) SW 225 0 min 0,0 UV-I 5,3 C 9,8 C 3,7 km/h (1 Bft)
07.10.2012 21:05 9,9 C 17,6 C 9,9 C 9,9 C 9,8 C 0,0 C 74 % 85 % 0 % 1021,0 hPa 0,0 l/m 3,5 km/h (1 Bft) NO 45 0 min 0,0 UV-I 5,5 C 9,8 C 8,7 km/h (2 Bft)
07.10.2012 21:10 9,9 C 17,6 C 9,9 C 9,8 C 9,7 C 0,0 C 74 % 85 % 0 % 1021,0 hPa 0,0 l/m 4,5 km/h (1 Bft) SW 225 0 min 0,0 UV-I 5,5 C 9,7 C 5,6 km/h (1 Bft)
07.10.2012 21:15 9,9 C 17,6 C 9,8 C 9,8 C 9,7 C 0,0 C 74 % 85 % 0 % 1021,0 hPa 0,0 l/m 4,3 km/h (1 Bft) W-SW 247 0 min 0,0 UV-I 5,5 C 9,7 C 4,7 km/h (1 Bft)
07.10.2012 21:20 9,9 C 17,6 C 9,9 C 9,8 C 9,7 C 0,0 C 74 % 85 % 0 % 1021,2 hPa 0,0 l/m 3,7 km/h (1 Bft) W-SW 247 0 min 0,0 UV-I 5,5 C 9,7 C 4,0 km/h (1 Bft)
07.10.2012 21:25 9,9 C 17,5 C 9,8 C 9,8 C 9,5 C 0,0 C 74 % 85 % 0 % 1021,2 hPa 0,0 l/m 4,3 km/h (1 Bft) SW 225 0 min 0,0 UV-I 5,5 C 9,5 C 5,8 km/h (2 Bft)
07.10.2012 21:30 9,8 C 17,5 C 9,9 C 9,7 C 9,6 C 0,0 C 74 % 85 % 0 % 1021,2 hPa 0,0 l/m 4,7 km/h (1 Bft) W 270 0 min 0,0 UV-I 5,4 C 9,4 C 6,0 km/h (2 Bft)
07.10.2012 21:35 9,9 C 17,5 C 9,9 C 9,8 C 9,7 C 0,0 C 75 % 85 % 0 % 1021,2 hPa 0,0 l/m 4,5 km/h (1 Bft) W-SW 247 0 min 0,0 UV-I 5,7 C 9,7 C 6,8 km/h (2 Bft)
07.10.2012 21:40 9,9 C 17,5 C 9,9 C 9,9 C 9,8 C 0,0 C 75 % 85 % 0 % 1021,4 hPa 0,0 l/m 4,2 km/h (1 Bft) W-SW 247 0 min 0,0 UV-I 5,7 C 9,8 C 6,4 km/h (2 Bft)
07.10.2012 21:45 9,9 C 17,5 C 9,9 C 9,8 C 9,7 C 0,0 C 75 % 85 % 0 % 1021,4 hPa 0,0 l/m 4,8 km/h (1 Bft) W-SW 247 0 min 0,0 UV-I 5,7 C 9,5 C 4,0 km/h (1 Bft)
07.10.2012 21:50 9,9 C 17,5 C 9,9 C 9,9 C 9,8 C 0,0 C 75 % 85 % 0 % 1021,4 hPa 0,0 l/m 4,5 km/h (1 Bft) SW 225 0 min 0,0 UV-I 5,7 C 9,8 C 5,0 km/h (1 Bft)
07.10.2012 21:55 9,9 C 17,5 C 9,9 C 9,9 C 9,8 C 0,0 C 75 % 85 % 0 % 1021,4 hPa 0,0 l/m 4,3 km/h (1 Bft) W 270 0 min 0,0 UV-I 5,7 C 9,8 C 2,6 km/h (1 Bft)
07.10.2012 22:00 9,9 C 17,5 C 9,9 C 9,9 C 9,8 C 0,0 C 75 % 85 % 0 % 1021,7 hPa 0,0 l/m 4,5 km/h (1 Bft) SW 225 0 min 0,0 UV-I 5,7 C 9,8 C 3,7 km/h (1 Bft)
07.10.2012 22:05 9,8 C 17,5 C 9,8 C 9,9 C 9,9 C 0,1 C 75 % 85 % 0 % 1021,7 hPa 0,0 l/m 4,0 km/h (1 Bft) SW 225 0 min 0,0 UV-I 5,6 C 9,9 C 6,9 km/h (2 Bft)
07.10.2012 22:10 9,9 C 17,5 C 9,8 C 9,8 C 9,7 C 0,0 C 75 % 85 % 0 % 1021,7 hPa 0,0 l/m 4,3 km/h (1 Bft) W-SW 247 0 min 0,0 UV-I 5,7 C 9,7 C 6,9 km/h (2 Bft)
07.10.2012 22:15 9,8 C 17,5 C 9,7 C 9,7 C 9,6 C 0,0 C 75 % 85 % 0 % 1021,7 hPa 0,0 l/m 4,2 km/h (1 Bft) W-SW 247 0 min 0,0 UV-I 5,6 C 9,6 C 4,5 km/h (1 Bft)
07.10.2012 22:20 9,7 C 17,5 C 9,7 C 9,6 C 9,5 C 0,0 C 76 % 84 % 0 % 1022,0 hPa 0,0 l/m 4,3 km/h (1 Bft) W-SW 247 0 min 0,0 UV-I 5,7 C 9,5 C 6,3 km/h (2 Bft)
07.10.2012 22:25 9,6 C 17,5 C 9,6 C 9,5 C 9,3 C 0,0 C 76 % 84 % 0 % 1022,0 hPa 0,0 l/m 4,7 km/h (1 Bft) W-SW 247 0 min 0,0 UV-I 5,6 C 9,1 C 7,7 km/h (2 Bft)
07.10.2012 22:30 9,6 C 17,5 C 9,7 C 9,5 C 9,2 C 0,0 C 76 % 84 % 0 % 1022,0 hPa 0,0 l/m 5,0 km/h (1 Bft) W 270 0 min 0,0 UV-I 5,6 C 8,8 C 7,4 km/h (2 Bft)
07.10.2012 22:35 9,7 C 17,5 C 9,6 C 9,4 C 8,9 C 0,0 C 76 % 84 % 0 % 1022,0 hPa 0,0 l/m 5,5 km/h (1 Bft) S 180 0 min 0,0 UV-I 5,7 C 8,4 C 6,4 km/h (2 Bft)
07.10.2012 22:40 9,6 C 17,5 C 9,6 C 9,4 C 9,1 C 0,0 C 76 % 84 % 0 % 1022,0 hPa 0,0 l/m 5,0 km/h (1 Bft) W 270 0 min 0,0 UV-I 5,6 C 8,7 C 6,8 km/h (2 Bft)
07.10.2012 22:45 9,5 C 17,5 C 9,5 C 9,4 C 9,1 C 0,0 C 76 % 84 % 0 % 1022,0 hPa 0,0 l/m 4,5 km/h (1 Bft) SW 225 0 min 0,0 UV-I 5,5 C 9,1 C 2,3 km/h (1 Bft)
07.10.2012 22:50 9,5 C 17,5 C 9,4 C 9,3 C 8,8 C 0,0 C 76 % 84 % 0 % 1022,0 hPa 0,0 l/m 4,8 km/h (1 Bft) W-SW 247 0 min 0,0 UV-I 5,5 C 8,5 C 6,9 km/h (2 Bft)
07.10.2012 22:55 9,4 C 17,5 C 9,5 C 9,1 C 8,5 C 0,0 C 76 % 84 % 0 % 1022,0 hPa 0,0 l/m 5,3 km/h (1 Bft) W 270 0 min 0,0 UV-I 5,4 C 8,0 C 6,9 km/h (2 Bft)
07.10.2012 23:00 9,4 C 17,5 C 9,4 C 9,1 C 8,6 C 0,0 C 76 % 84 % 0 % 1022,6 hPa 0,0 l/m 5,5 km/h (1 Bft) SW 225 0 min 0,0 UV-I 5,4 C 8,0 C 6,4 km/h (2 Bft)
07.10.2012 23:05 9,4 C 17,5 C 9,5 C 9,2 C 8,8 C 0,0 C 76 % 84 % 0 % 1022,6 hPa 0,0 l/m 5,3 km/h (1 Bft) S-SW 202 0 min 0,0 UV-I 5,4 C 8,3 C 6,8 km/h (2 Bft)
07.10.2012 23:10 9,4 C 17,5 C 9,4 C 9,2 C 8,8 C 0,0 C 76 % 84 % 0 % 1022,6 hPa 0,0 l/m 5,1 km/h (1 Bft) S 180 0 min 0,0 UV-I 5,4 C 8,4 C 6,1 km/h (2 Bft)
07.10.2012 23:15 9,4 C 17,5 C 9,4 C 9,3 C 9,0 C 0,0 C 77 % 84 % 0 % 1022,6 hPa 0,0 l/m 4,7 km/h (1 Bft) W-SW 247 0 min 0,0 UV-I 5,6 C 8,7 C 3,1 km/h (1 Bft)
07.10.2012 23:20 9,3 C 17,5 C 9,4 C 9,2 C 9,1 C 0,0 C 77 % 84 % 0 % 1022,2 hPa 0,0 l/m 4,5 km/h (1 Bft) W-SW 247 0 min 0,0 UV-I 5,5 C 9,1 C 4,3 km/h (1 Bft)
07.10.2012 23:25 9,3 C 17,4 C 9,4 C 9,2 C 9,0 C 0,0 C 77 % 84 % 0 % 1022,2 hPa 0,0 l/m 4,7 km/h (1 Bft) S-SW 202 0 min 0,0 UV-I 5,5 C 8,7 C 4,3 km/h (1 Bft)
07.10.2012 23:30 9,4 C 17,4 C 9,5 C 9,3 C 9,0 C 0,0 C 77 % 84 % 0 % 1022,2 hPa 0,0 l/m 4,7 km/h (1 Bft) W 270 0 min 0,0 UV-I 5,6 C 8,7 C 3,9 km/h (1 Bft)
07.10.2012 23:35 9,4 C 17,4 C 9,5 C 9,3 C 9,2 C 0,0 C 77 % 84 % 0 % 1022,2 hPa 0,0 l/m 4,2 km/h (1 Bft) W-SW 247 0 min 0,0 UV-I 5,6 C 9,2 C 5,1 km/h (1 Bft)
07.10.2012 23:40 9,4 C 17,4 C 9,5 C 9,4 C 9,3 C 0,0 C 77 % 84 % 0 % 1022,5 hPa 0,0 l/m 4,0 km/h (1 Bft) W-SW 247 0 min 0,0 UV-I 5,6 C 9,3 C 4,7 km/h (1 Bft)
07.10.2012 23:45 9,5 C 17,4 C 9,5 C 9,4 C 9,3 C 0,0 C 77 % 84 % 0 % 1022,5 hPa 0,0 l/m 3,9 km/h (1 Bft) W-SW 247 0 min 0,0 UV-I 5,7 C 9,3 C 5,0 km/h (1 Bft)
07.10.2012 23:50 9,5 C 17,4 C 9,5 C 9,4 C 9,3 C 0,0 C 77 % 84 % 0 % 1022,5 hPa 0,0 l/m 3,9 km/h (1 Bft) W-SW 247 0 min 0,0 UV-I 5,7 C 9,3 C 4,2 km/h (1 Bft)
07.10.2012 23:55 9,5 C 17,4 C 9,4 C 9,4 C 9,2 C 0,0 C 78 % 84 % 0 % 1022,5 hPa 0,0 l/m 4,2 km/h (1 Bft) S-SW 202 0 min 0,0 UV-I 5,9 C 9,2 C 5,0 km/h (1 Bft)
_ Min-Zeit 03:50 12:55 06:25 03:50 03:50 18:05 16:25 17:05 00:00 06:00 - 00:00 - - - 00:00 17:30 03:50 00:00
Minimum _ 7,2 C 17,4 C 8,4 C 7,6 C 7,6 C 0,0 C 58 % 80 % 0 % 1013,2 hPa - 0,0 km/h (0 Bft) - - - 0,0 UV-I 4,8 C 7,6 C 0,0 km/h (0 Bft)
_ Max-Zeit 16:20 00:00 16:25 13:50 13:50 13:50 08:30 04:00 12:25 23:00 00:00 14:45 - - 12:55 12:42 13:45 13:50 14:40
Maximum _ 14,0 C 20,0 C 13,1 C 18,7 C 18,7 C 6,3 C 92 % 96 % 100 % 1022,6 hPa 0,7 l/m 7,2 km/h
W-SW (2 Bft)
- - 13 min 1,6 UV-I 7,9 C 18,7 C 16,1 km/h
S-SW (3 Bft)
Durchschnitt _ 9,5 C 18,5 C 10,1 C 10,7 C 10,6 C 1,2 C 81 % 91 % 26 % 1016,8 hPa #0,7 l/m 2,4 km/h (1 Bft) W-SW - #3:40 h 0,6 UV-I 6,3 C 10,6 C 3,3 km/h (1 Bft)
2012 www.wetterstation-wechselburg.de